sensor_id;sensor_type;location;lat;lon;timestamp;P1;P2;P0
55276;PMS5003;41136;51.478;-2.610;2023-03-18T00:00:00;5;5;
55276;PMS5003;41136;51.478;-2.610;2023-03-18T00:02:26;4;3;
55276;PMS5003;41136;51.478;-2.610;2023-03-18T00:04:51;5;4;
55276;PMS5003;41136;51.478;-2.610;2023-03-18T00:07:16;5;5;
55276;PMS5003;41136;51.478;-2.610;2023-03-18T00:09:42;7;5;
55276;PMS5003;41136;51.478;-2.610;2023-03-18T00:12:07;3;3;
55276;PMS5003;41136;51.478;-2.610;2023-03-18T00:14:33;4;4;
55276;PMS5003;41136;51.478;-2.610;2023-03-18T00:16:57;7;4;
55276;PMS5003;41136;51.478;-2.610;2023-03-18T00:19:23;5;5;
55276;PMS5003;41136;51.478;-2.610;2023-03-18T00:21:49;4;3;
55276;PMS5003;41136;51.478;-2.610;2023-03-18T00:24:14;4;4;
55276;PMS5003;41136;51.478;-2.610;2023-03-18T00:26:39;8;4;
55276;PMS5003;41136;51.478;-2.610;2023-03-18T00:29:05;1;1;
55276;PMS5003;41136;51.478;-2.610;2023-03-18T00:31:30;3;3;
55276;PMS5003;41136;51.478;-2.610;2023-03-18T00:33:55;3;3;
55276;PMS5003;41136;51.478;-2.610;2023-03-18T00:36:21;4;3;
55276;PMS5003;41136;51.478;-2.610;2023-03-18T00:38:46;3;3;
55276;PMS5003;41136;51.478;-2.610;2023-03-18T00:41:12;3;3;
55276;PMS5003;41136;51.478;-2.610;2023-03-18T00:43:37;3;3;
55276;PMS5003;41136;51.478;-2.610;2023-03-18T00:46:02;2;2;
55276;PMS5003;41136;51.478;-2.610;2023-03-18T00:48:27;3;3;
55276;PMS5003;41136;51.478;-2.610;2023-03-18T00:50:53;4;3;
55276;PMS5003;41136;51.478;-2.610;2023-03-18T00:53:18;8;7;
55276;PMS5003;41136;51.478;-2.610;2023-03-18T00:55:43;4;2;
55276;PMS5003;41136;51.478;-2.610;2023-03-18T00:58:09;3;3;
55276;PMS5003;41136;51.478;-2.610;2023-03-18T01:00:34;5;4;
55276;PMS5003;41136;51.478;-2.610;2023-03-18T01:02:59;5;4;
55276;PMS5003;41136;51.478;-2.610;2023-03-18T01:05:25;5;5;
55276;PMS5003;41136;51.478;-2.610;2023-03-18T01:07:50;3;3;
55276;PMS5003;41136;51.478;-2.610;2023-03-18T01:10:15;4;4;
55276;PMS5003;41136;51.478;-2.610;2023-03-18T01:12:42;8;4;
55276;PMS5003;41136;51.478;-2.610;2023-03-18T01:18:11;4;4;
55276;PMS5003;41136;51.478;-2.610;2023-03-18T01:20:36;4;4;
55276;PMS5003;41136;51.478;-2.610;2023-03-18T01:23:01;3;3;
55276;PMS5003;41136;51.478;-2.610;2023-03-18T01:25:26;4;4;
55276;PMS5003;41136;51.478;-2.610;2023-03-18T01:27:52;6;6;
55276;PMS5003;41136;51.478;-2.610;2023-03-18T01:30:17;4;4;
55276;PMS5003;41136;51.478;-2.610;2023-03-18T01:32:42;5;5;
55276;PMS5003;41136;51.478;-2.610;2023-03-18T01:35:08;5;3;
55276;PMS5003;41136;51.478;-2.610;2023-03-18T01:37:33;4;4;
55276;PMS5003;41136;51.478;-2.610;2023-03-18T01:39:58;4;4;
55276;PMS5003;41136;51.478;-2.610;2023-03-18T01:42:24;6;6;
55276;PMS5003;41136;51.478;-2.610;2023-03-18T01:44:49;3;3;
55276;PMS5003;41136;51.478;-2.610;2023-03-18T01:47:14;4;4;
55276;PMS5003;41136;51.478;-2.610;2023-03-18T01:49:41;2;2;
55276;PMS5003;41136;51.478;-2.610;2023-03-18T01:52:06;5;5;
55276;PMS5003;41136;51.478;-2.610;2023-03-18T01:54:32;5;4;
55276;PMS5003;41136;51.478;-2.610;2023-03-18T01:56:56;4;4;
55276;PMS5003;41136;51.478;-2.610;2023-03-18T01:59:22;3;3;
55276;PMS5003;41136;51.478;-2.610;2023-03-18T02:01:47;4;4;
55276;PMS5003;41136;51.478;-2.610;2023-03-18T02:04:12;5;5;
55276;PMS5003;41136;51.478;-2.610;2023-03-18T02:06:37;5;5;
55276;PMS5003;41136;51.478;-2.610;2023-03-18T02:09:03;5;5;
55276;PMS5003;41136;51.478;-2.610;2023-03-18T02:11:29;6;6;
55276;PMS5003;41136;51.478;-2.610;2023-03-18T02:13:53;6;6;
55276;PMS5003;41136;51.478;-2.610;2023-03-18T02:16:20;5;5;
55276;PMS5003;41136;51.478;-2.610;2023-03-18T02:18:46;5;5;
55276;PMS5003;41136;51.478;-2.610;2023-03-18T02:21:14;8;7;
55276;PMS5003;41136;51.478;-2.610;2023-03-18T02:23:37;8;8;
55276;PMS5003;41136;51.478;-2.610;2023-03-18T02:26:02;12;9;
55276;PMS5003;41136;51.478;-2.610;2023-03-18T02:28:27;12;9;
55276;PMS5003;41136;51.478;-2.610;2023-03-18T02:30:51;8;7;
55276;PMS5003;41136;51.478;-2.610;2023-03-18T02:33:16;10;7;
55276;PMS5003;41136;51.478;-2.610;2023-03-18T02:35:41;11;10;
55276;PMS5003;41136;51.478;-2.610;2023-03-18T02:38:07;9;7;
55276;PMS5003;41136;51.478;-2.610;2023-03-18T02:40:33;10;10;
55276;PMS5003;41136;51.478;-2.610;2023-03-18T02:45:39;8;8;
55276;PMS5003;41136;51.478;-2.610;2023-03-18T02:47:49;13;13;
55276;PMS5003;41136;51.478;-2.610;2023-03-18T02:50:14;10;10;
55276;PMS5003;41136;51.478;-2.610;2023-03-18T02:52:40;12;11;
55276;PMS5003;41136;51.478;-2.610;2023-03-18T02:55:06;10;10;
55276;PMS5003;41136;51.478;-2.610;2023-03-18T02:57:31;14;10;
55276;PMS5003;41136;51.478;-2.610;2023-03-18T02:59:56;11;11;
55276;PMS5003;41136;51.478;-2.610;2023-03-18T03:02:22;11;8;
55276;PMS5003;41136;51.478;-2.610;2023-03-18T03:04:47;10;8;
55276;PMS5003;41136;51.478;-2.610;2023-03-18T03:07:12;8;6;
55276;PMS5003;41136;51.478;-2.610;2023-03-18T03:09:37;8;8;
55276;PMS5003;41136;51.478;-2.610;2023-03-18T03:12:03;6;6;
55276;PMS5003;41136;51.478;-2.610;2023-03-18T03:14:28;5;5;
55276;PMS5003;41136;51.478;-2.610;2023-03-18T03:16:53;7;7;
55276;PMS5003;41136;51.478;-2.610;2023-03-18T03:19:19;5;5;
55276;PMS5003;41136;51.478;-2.610;2023-03-18T03:21:44;5;5;
55276;PMS5003;41136;51.478;-2.610;2023-03-18T03:24:09;6;5;
55276;PMS5003;41136;51.478;-2.610;2023-03-18T03:26:35;5;4;
55276;PMS5003;41136;51.478;-2.610;2023-03-18T03:29:01;8;8;
55276;PMS5003;41136;51.478;-2.610;2023-03-18T03:31:26;6;6;
55276;PMS5003;41136;51.478;-2.610;2023-03-18T03:33:52;3;3;
55276;PMS5003;41136;51.478;-2.610;2023-03-18T03:36:17;4;4;
55276;PMS5003;41136;51.478;-2.610;2023-03-18T03:38:42;2;2;
55276;PMS5003;41136;51.478;-2.610;2023-03-18T03:41:08;3;3;
55276;PMS5003;41136;51.478;-2.610;2023-03-18T03:43:33;3;3;
55276;PMS5003;41136;51.478;-2.610;2023-03-18T03:45:58;3;3;
55276;PMS5003;41136;51.478;-2.610;2023-03-18T03:48:23;3;3;
55276;PMS5003;41136;51.478;-2.610;2023-03-18T03:50:49;2;2;
55276;PMS5003;41136;51.478;-2.610;2023-03-18T03:53:14;2;1;
55276;PMS5003;41136;51.478;-2.610;2023-03-18T03:55:39;1;1;
55276;PMS5003;41136;51.478;-2.610;2023-03-18T03:58:05;2;2;
55276;PMS5003;41136;51.478;-2.610;2023-03-18T04:00:30;3;3;
55276;PMS5003;41136;51.478;-2.610;2023-03-18T04:02:55;5;5;
55276;PMS5003;41136;51.478;-2.610;2023-03-18T04:05:21;3;3;
55276;PMS5003;41136;51.478;-2.610;2023-03-18T04:07:46;8;5;
55276;PMS5003;41136;51.478;-2.610;2023-03-18T04:10:12;5;3;
55276;PMS5003;41136;51.478;-2.610;2023-03-18T04:12:37;2;2;
55276;PMS5003;41136;51.478;-2.610;2023-03-18T04:15:02;5;4;
55276;PMS5003;41136;51.478;-2.610;2023-03-18T04:17:27;4;4;
55276;PMS5003;41136;51.478;-2.610;2023-03-18T04:19:52;8;5;
55276;PMS5003;41136;51.478;-2.610;2023-03-18T04:22:18;5;5;
55276;PMS5003;41136;51.478;-2.610;2023-03-18T04:24:43;7;7;
55276;PMS5003;41136;51.478;-2.610;2023-03-18T04:27:09;8;7;
55276;PMS5003;41136;51.478;-2.610;2023-03-18T04:29:34;5;5;
55276;PMS5003;41136;51.478;-2.610;2023-03-18T04:32:00;4;4;
55276;PMS5003;41136;51.478;-2.610;2023-03-18T04:34:25;7;7;
55276;PMS5003;41136;51.478;-2.610;2023-03-18T04:36:50;4;4;
55276;PMS5003;41136;51.478;-2.610;2023-03-18T04:39:16;3;3;
55276;PMS5003;41136;51.478;-2.610;2023-03-18T04:41:41;5;5;
55276;PMS5003;41136;51.478;-2.610;2023-03-18T04:44:07;3;3;
55276;PMS5003;41136;51.478;-2.610;2023-03-18T04:46:32;1;1;
55276;PMS5003;41136;51.478;-2.610;2023-03-18T04:48:57;3;3;
55276;PMS5003;41136;51.478;-2.610;2023-03-18T04:51:23;4;4;
55276;PMS5003;41136;51.478;-2.610;2023-03-18T04:53:48;4;4;
55276;PMS5003;41136;51.478;-2.610;2023-03-18T04:56:14;2;2;
55276;PMS5003;41136;51.478;-2.610;2023-03-18T04:58:39;3;3;
55276;PMS5003;41136;51.478;-2.610;2023-03-18T05:01:04;3;3;
55276;PMS5003;41136;51.478;-2.610;2023-03-18T05:03:30;3;3;
55276;PMS5003;41136;51.478;-2.610;2023-03-18T05:05:55;2;2;
55276;PMS5003;41136;51.478;-2.610;2023-03-18T05:08:20;7;6;
55276;PMS5003;41136;51.478;-2.610;2023-03-18T05:10:46;4;4;
55276;PMS5003;41136;51.478;-2.610;2023-03-18T05:13:11;5;5;
55276;PMS5003;41136;51.478;-2.610;2023-03-18T05:15:36;6;5;
55276;PMS5003;41136;51.478;-2.610;2023-03-18T05:18:02;6;6;
55276;PMS5003;41136;51.478;-2.610;2023-03-18T05:20:27;4;4;
55276;PMS5003;41136;51.478;-2.610;2023-03-18T05:22:52;4;4;
55276;PMS5003;41136;51.478;-2.610;2023-03-18T05:25:18;4;4;
55276;PMS5003;41136;51.478;-2.610;2023-03-18T05:27:43;6;5;
55276;PMS5003;41136;51.478;-2.610;2023-03-18T05:30:09;6;6;
55276;PMS5003;41136;51.478;-2.610;2023-03-18T05:32:34;4;4;
55276;PMS5003;41136;51.478;-2.610;2023-03-18T05:34:59;5;4;
55276;PMS5003;41136;51.478;-2.610;2023-03-18T05:40:09;5;5;
55276;PMS5003;41136;51.478;-2.610;2023-03-18T05:42:34;7;5;
55276;PMS5003;41136;51.478;-2.610;2023-03-18T05:44:59;5;5;
55276;PMS5003;41136;51.478;-2.610;2023-03-18T05:47:25;6;3;
55276;PMS5003;41136;51.478;-2.610;2023-03-18T05:49:50;4;4;
55276;PMS5003;41136;51.478;-2.610;2023-03-18T05:52:15;6;5;
55276;PMS5003;41136;51.478;-2.610;2023-03-18T05:54:41;4;4;
55276;PMS5003;41136;51.478;-2.610;2023-03-18T05:57:06;5;2;
55276;PMS5003;41136;51.478;-2.610;2023-03-18T05:59:31;3;3;
55276;PMS5003;41136;51.478;-2.610;2023-03-18T06:01:57;3;3;
55276;PMS5003;41136;51.478;-2.610;2023-03-18T06:04:22;4;4;
55276;PMS5003;41136;51.478;-2.610;2023-03-18T06:06:47;4;4;
55276;PMS5003;41136;51.478;-2.610;2023-03-18T06:09:13;4;4;
55276;PMS5003;41136;51.478;-2.610;2023-03-18T06:11:38;5;4;
55276;PMS5003;41136;51.478;-2.610;2023-03-18T06:14:03;2;2;
55276;PMS5003;41136;51.478;-2.610;2023-03-18T06:16:29;4;4;
55276;PMS5003;41136;51.478;-2.610;2023-03-18T06:18:54;4;4;
55276;PMS5003;41136;51.478;-2.610;2023-03-18T06:21:19;6;4;
55276;PMS5003;41136;51.478;-2.610;2023-03-18T06:23:45;10;7;
55276;PMS5003;41136;51.478;-2.610;2023-03-18T06:26:11;7;6;
55276;PMS5003;41136;51.478;-2.610;2023-03-18T06:28:36;5;5;
55276;PMS5003;41136;51.478;-2.610;2023-03-18T06:31:01;7;5;
55276;PMS5003;41136;51.478;-2.610;2023-03-18T06:33:27;3;3;
55276;PMS5003;41136;51.478;-2.610;2023-03-18T06:35:52;7;6;
55276;PMS5003;41136;51.478;-2.610;2023-03-18T06:38:17;4;4;
55276;PMS5003;41136;51.478;-2.610;2023-03-18T06:40:43;4;4;
55276;PMS5003;41136;51.478;-2.610;2023-03-18T06:43:08;3;3;
55276;PMS5003;41136;51.478;-2.610;2023-03-18T06:45:34;3;3;
55276;PMS5003;41136;51.478;-2.610;2023-03-18T06:47:59;5;5;
55276;PMS5003;41136;51.478;-2.610;2023-03-18T06:50:25;5;5;
55276;PMS5003;41136;51.478;-2.610;2023-03-18T06:52:50;5;4;
55276;PMS5003;41136;51.478;-2.610;2023-03-18T06:55:15;8;7;
55276;PMS5003;41136;51.478;-2.610;2023-03-18T06:57:41;7;5;
55276;PMS5003;41136;51.478;-2.610;2023-03-18T07:00:06;10;8;
55276;PMS5003;41136;51.478;-2.610;2023-03-18T07:02:31;9;6;
55276;PMS5003;41136;51.478;-2.610;2023-03-18T07:04:57;8;7;
55276;PMS5003;41136;51.478;-2.610;2023-03-18T07:07:22;8;7;
55276;PMS5003;41136;51.478;-2.610;2023-03-18T07:09:48;7;7;
55276;PMS5003;41136;51.478;-2.610;2023-03-18T07:12:13;7;6;
55276;PMS5003;41136;51.478;-2.610;2023-03-18T07:14:39;6;6;
55276;PMS5003;41136;51.478;-2.610;2023-03-18T07:17:05;6;6;
55276;PMS5003;41136;51.478;-2.610;2023-03-18T07:19:30;8;6;
55276;PMS5003;41136;51.478;-2.610;2023-03-18T07:21:55;8;6;
55276;PMS5003;41136;51.478;-2.610;2023-03-18T07:24:20;6;5;
55276;PMS5003;41136;51.478;-2.610;2023-03-18T07:26:46;8;5;
55276;PMS5003;41136;51.478;-2.610;2023-03-18T07:29:11;4;4;
55276;PMS5003;41136;51.478;-2.610;2023-03-18T07:31:37;7;6;
55276;PMS5003;41136;51.478;-2.610;2023-03-18T07:34:02;7;4;
55276;PMS5003;41136;51.478;-2.610;2023-03-18T07:36:28;5;4;
55276;PMS5003;41136;51.478;-2.610;2023-03-18T07:38:53;4;4;
55276;PMS5003;41136;51.478;-2.610;2023-03-18T07:41:18;6;4;
55276;PMS5003;41136;51.478;-2.610;2023-03-18T07:43:43;4;4;
55276;PMS5003;41136;51.478;-2.610;2023-03-18T07:46:09;8;4;
55276;PMS5003;41136;51.478;-2.610;2023-03-18T07:48:34;5;3;
55276;PMS5003;41136;51.478;-2.610;2023-03-18T07:51:00;4;4;
55276;PMS5003;41136;51.478;-2.610;2023-03-18T07:53:25;5;5;
55276;PMS5003;41136;51.478;-2.610;2023-03-18T07:55:50;4;4;
55276;PMS5003;41136;51.478;-2.610;2023-03-18T07:58:15;5;4;
55276;PMS5003;41136;51.478;-2.610;2023-03-18T08:00:41;3;3;
55276;PMS5003;41136;51.478;-2.610;2023-03-18T08:03:06;5;4;
55276;PMS5003;41136;51.478;-2.610;2023-03-18T08:05:31;6;4;
55276;PMS5003;41136;51.478;-2.610;2023-03-18T08:07:57;7;6;
55276;PMS5003;41136;51.478;-2.610;2023-03-18T08:10:22;5;5;
55276;PMS5003;41136;51.478;-2.610;2023-03-18T08:12:47;7;5;
55276;PMS5003;41136;51.478;-2.610;2023-03-18T08:15:13;5;4;
55276;PMS5003;41136;51.478;-2.610;2023-03-18T08:17:38;6;4;
55276;PMS5003;41136;51.478;-2.610;2023-03-18T08:20:04;5;4;
55276;PMS5003;41136;51.478;-2.610;2023-03-18T08:22:29;4;3;
55276;PMS5003;41136;51.478;-2.610;2023-03-18T08:24:55;5;5;
55276;PMS5003;41136;51.478;-2.610;2023-03-18T08:27:20;5;3;
55276;PMS5003;41136;51.478;-2.610;2023-03-18T08:29:46;4;4;
55276;PMS5003;41136;51.478;-2.610;2023-03-18T08:32:11;5;5;
55276;PMS5003;41136;51.478;-2.610;2023-03-18T08:34:36;8;4;
55276;PMS5003;41136;51.478;-2.610;2023-03-18T08:37:02;3;3;
55276;PMS5003;41136;51.478;-2.610;2023-03-18T08:39:27;2;2;
55276;PMS5003;41136;51.478;-2.610;2023-03-18T08:41:52;4;2;
55276;PMS5003;41136;51.478;-2.610;2023-03-18T08:44:18;6;5;
55276;PMS5003;41136;51.478;-2.610;2023-03-18T08:46:44;7;5;
55276;PMS5003;41136;51.478;-2.610;2023-03-18T08:49:09;5;4;
55276;PMS5003;41136;51.478;-2.610;2023-03-18T08:51:34;4;4;
55276;PMS5003;41136;51.478;-2.610;2023-03-18T08:53:59;4;2;
55276;PMS5003;41136;51.478;-2.610;2023-03-18T08:56:25;3;3;
55276;PMS5003;41136;51.478;-2.610;2023-03-18T08:58:50;6;4;
55276;PMS5003;41136;51.478;-2.610;2023-03-18T09:01:16;4;4;
55276;PMS5003;41136;51.478;-2.610;2023-03-18T09:03:41;2;2;
55276;PMS5003;41136;51.478;-2.610;2023-03-18T09:06:06;5;3;
55276;PMS5003;41136;51.478;-2.610;2023-03-18T09:08:31;4;2;
55276;PMS5003;41136;51.478;-2.610;2023-03-18T09:10:57;6;5;
55276;PMS5003;41136;51.478;-2.610;2023-03-18T09:13:22;3;1;
55276;PMS5003;41136;51.478;-2.610;2023-03-18T09:15:47;4;4;
55276;PMS5003;41136;51.478;-2.610;2023-03-18T09:18:13;2;2;
55276;PMS5003;41136;51.478;-2.610;2023-03-18T09:20:38;2;2;
55276;PMS5003;41136;51.478;-2.610;2023-03-18T09:23:03;4;1;
55276;PMS5003;41136;51.478;-2.610;2023-03-18T09:25:28;5;3;
55276;PMS5003;41136;51.478;-2.610;2023-03-18T09:27:54;2;2;
55276;PMS5003;41136;51.478;-2.610;2023-03-18T09:30:19;3;2;
55276;PMS5003;41136;51.478;-2.610;2023-03-18T09:32:44;5;2;
55276;PMS5003;41136;51.478;-2.610;2023-03-18T09:35:10;3;2;
55276;PMS5003;41136;51.478;-2.610;2023-03-18T09:37:35;3;2;
55276;PMS5003;41136;51.478;-2.610;2023-03-18T09:40:00;5;3;
55276;PMS5003;41136;51.478;-2.610;2023-03-18T09:42:29;4;4;
55276;PMS5003;41136;51.478;-2.610;2023-03-18T09:44:53;4;3;
55276;PMS5003;41136;51.478;-2.610;2023-03-18T09:47:22;4;1;
55276;PMS5003;41136;51.478;-2.610;2023-03-18T09:49:44;3;2;
55276;PMS5003;41136;51.478;-2.610;2023-03-18T09:52:12;4;4;
55276;PMS5003;41136;51.478;-2.610;2023-03-18T09:54:34;0;0;
55276;PMS5003;41136;51.478;-2.610;2023-03-18T09:56:57;3;3;
55276;PMS5003;41136;51.478;-2.610;2023-03-18T09:59:24;2;2;
55276;PMS5003;41136;51.478;-2.610;2023-03-18T10:01:49;1;1;
55276;PMS5003;41136;51.478;-2.610;2023-03-18T10:04:14;2;2;
55276;PMS5003;41136;51.478;-2.610;2023-03-18T10:06:39;1;0;
55276;PMS5003;41136;51.478;-2.610;2023-03-18T10:09:07;2;2;
55276;PMS5003;41136;51.478;-2.610;2023-03-18T10:11:30;1;1;
55276;PMS5003;41136;51.478;-2.610;2023-03-18T10:13:57;1;1;
55276;PMS5003;41136;51.478;-2.610;2023-03-18T10:16:21;1;1;
55276;PMS5003;41136;51.478;-2.610;2023-03-18T10:18:45;2;2;
55276;PMS5003;41136;51.478;-2.610;2023-03-18T10:21:13;1;1;
55276;PMS5003;41136;51.478;-2.610;2023-03-18T10:23:38;3;2;
55276;PMS5003;41136;51.478;-2.610;2023-03-18T10:26:03;1;1;
55276;PMS5003;41136;51.478;-2.610;2023-03-18T10:28:31;0;0;
55276;PMS5003;41136;51.478;-2.610;2023-03-18T10:30:54;0;0;
55276;PMS5003;41136;51.478;-2.610;2023-03-18T10:33:21;3;3;
55276;PMS5003;41136;51.478;-2.610;2023-03-18T10:35:44;1;1;
55276;PMS5003;41136;51.478;-2.610;2023-03-18T10:38:11;3;3;
55276;PMS5003;41136;51.478;-2.610;2023-03-18T10:40:34;0;0;
55276;PMS5003;41136;51.478;-2.610;2023-03-18T10:42:59;3;1;
55276;PMS5003;41136;51.478;-2.610;2023-03-18T10:45:24;1;1;
55276;PMS5003;41136;51.478;-2.610;2023-03-18T10:47:51;1;1;
55276;PMS5003;41136;51.478;-2.610;2023-03-18T10:50:16;2;1;
55276;PMS5003;41136;51.478;-2.610;2023-03-18T10:52:41;2;1;
55276;PMS5003;41136;51.478;-2.610;2023-03-18T10:55:07;1;1;
55276;PMS5003;41136;51.478;-2.610;2023-03-18T10:57:30;0;0;
55276;PMS5003;41136;51.478;-2.610;2023-03-18T10:59:56;0;0;
55276;PMS5003;41136;51.478;-2.610;2023-03-18T11:02:23;0;0;
55276;PMS5003;41136;51.478;-2.610;2023-03-18T11:04:49;0;0;
55276;PMS5003;41136;51.478;-2.610;2023-03-18T11:07:13;0;0;
55276;PMS5003;41136;51.478;-2.610;2023-03-18T11:09:37;1;1;
55276;PMS5003;41136;51.478;-2.610;2023-03-18T11:12:03;4;4;
55276;PMS5003;41136;51.478;-2.610;2023-03-18T11:14:28;9;6;
55276;PMS5003;41136;51.478;-2.610;2023-03-18T11:16:55;3;3;
55276;PMS5003;41136;51.478;-2.610;2023-03-18T11:19:22;2;2;
55276;PMS5003;41136;51.478;-2.610;2023-03-18T11:21:43;1;1;
55276;PMS5003;41136;51.478;-2.610;2023-03-18T11:24:19;1;1;
55276;PMS5003;41136;51.478;-2.610;2023-03-18T11:29:03;3;3;
55276;PMS5003;41136;51.478;-2.610;2023-03-18T11:31:25;6;6;
55276;PMS5003;41136;51.478;-2.610;2023-03-18T11:33:51;2;2;
55276;PMS5003;41136;51.478;-2.610;2023-03-18T11:36:16;1;1;
55276;PMS5003;41136;51.478;-2.610;2023-03-18T11:38:40;4;4;
55276;PMS5003;41136;51.478;-2.610;2023-03-18T11:41:07;1;1;
55276;PMS5003;41136;51.478;-2.610;2023-03-18T11:43:31;6;6;
55276;PMS5003;41136;51.478;-2.610;2023-03-18T11:45:58;10;10;
55276;PMS5003;41136;51.478;-2.610;2023-03-18T11:48:27;6;6;
55276;PMS5003;41136;51.478;-2.610;2023-03-18T11:50:53;3;1;
55276;PMS5003;41136;51.478;-2.610;2023-03-18T11:53:14;5;3;
55276;PMS5003;41136;51.478;-2.610;2023-03-18T11:55:40;5;5;
55276;PMS5003;41136;51.478;-2.610;2023-03-18T11:58:07;2;2;
55276;PMS5003;41136;51.478;-2.610;2023-03-18T12:00:30;6;3;
55276;PMS5003;41136;51.478;-2.610;2023-03-18T12:02:59;4;2;
55276;PMS5003;41136;51.478;-2.610;2023-03-18T12:07:48;4;4;
55276;PMS5003;41136;51.478;-2.610;2023-03-18T12:10:12;3;3;
55276;PMS5003;41136;51.478;-2.610;2023-03-18T12:12:41;6;4;
55276;PMS5003;41136;51.478;-2.610;2023-03-18T12:15:03;4;3;
55276;PMS5003;41136;51.478;-2.610;2023-03-18T12:17:30;5;5;
55276;PMS5003;41136;51.478;-2.610;2023-03-18T12:19:57;3;3;
55276;PMS5003;41136;51.478;-2.610;2023-03-18T12:22:23;3;3;
55276;PMS5003;41136;51.478;-2.610;2023-03-18T12:24:49;3;3;
55276;PMS5003;41136;51.478;-2.610;2023-03-18T12:27:09;5;5;
55276;PMS5003;41136;51.478;-2.610;2023-03-18T12:29:37;6;6;
55276;PMS5003;41136;51.478;-2.610;2023-03-18T12:32:01;5;5;
55276;PMS5003;41136;51.478;-2.610;2023-03-18T12:34:28;3;3;
55276;PMS5003;41136;51.478;-2.610;2023-03-18T12:36:53;7;7;
55276;PMS5003;41136;51.478;-2.610;2023-03-18T12:39:19;8;6;
55276;PMS5003;41136;51.478;-2.610;2023-03-18T12:41:42;6;5;
55276;PMS5003;41136;51.478;-2.610;2023-03-18T12:44:09;2;2;
55276;PMS5003;41136;51.478;-2.610;2023-03-18T12:46:31;1;1;
55276;PMS5003;41136;51.478;-2.610;2023-03-18T12:48:58;2;2;
55276;PMS5003;41136;51.478;-2.610;2023-03-18T12:51:23;1;1;
55276;PMS5003;41136;51.478;-2.610;2023-03-18T12:53:47;3;3;
55276;PMS5003;41136;51.478;-2.610;2023-03-18T12:56:12;4;3;
55276;PMS5003;41136;51.478;-2.610;2023-03-18T12:58:38;1;1;
55276;PMS5003;41136;51.478;-2.610;2023-03-18T13:01:03;0;0;
55276;PMS5003;41136;51.478;-2.610;2023-03-18T13:03:30;1;1;
55276;PMS5003;41136;51.478;-2.610;2023-03-18T13:05:54;4;3;
55276;PMS5003;41136;51.478;-2.610;2023-03-18T13:10:43;0;0;
55276;PMS5003;41136;51.478;-2.610;2023-03-18T13:13:09;1;1;
55276;PMS5003;41136;51.478;-2.610;2023-03-18T13:15:34;1;1;
55276;PMS5003;41136;51.478;-2.610;2023-03-18T13:18:00;2;2;
55276;PMS5003;41136;51.478;-2.610;2023-03-18T13:20:26;2;2;
55276;PMS5003;41136;51.478;-2.610;2023-03-18T13:22:55;3;2;
55276;PMS5003;41136;51.478;-2.610;2023-03-18T13:25:17;2;2;
55276;PMS5003;41136;51.478;-2.610;2023-03-18T13:27:43;1;1;
55276;PMS5003;41136;51.478;-2.610;2023-03-18T13:30:08;0;0;
55276;PMS5003;41136;51.478;-2.610;2023-03-18T13:32:36;1;1;
55276;PMS5003;41136;51.478;-2.610;2023-03-18T13:37:26;1;1;
55276;PMS5003;41136;51.478;-2.610;2023-03-18T13:39:51;0;0;
55276;PMS5003;41136;51.478;-2.610;2023-03-18T13:42:17;3;2;
55276;PMS5003;41136;51.478;-2.610;2023-03-18T13:44:39;3;2;
55276;PMS5003;41136;51.478;-2.610;2023-03-18T13:47:03;5;2;
55276;PMS5003;41136;51.478;-2.610;2023-03-18T13:49:28;3;1;
55276;PMS5003;41136;51.478;-2.610;2023-03-18T13:51:54;1;1;
55276;PMS5003;41136;51.478;-2.610;2023-03-18T13:54:18;1;1;
55276;PMS5003;41136;51.478;-2.610;2023-03-18T13:56:46;2;2;
55276;PMS5003;41136;51.478;-2.610;2023-03-18T13:59:33;3;2;
55276;PMS5003;41136;51.478;-2.610;2023-03-18T14:01:47;3;1;
55276;PMS5003;41136;51.478;-2.610;2023-03-18T14:04:01;1;1;
55276;PMS5003;41136;51.478;-2.610;2023-03-18T14:08:50;4;3;
55276;PMS5003;41136;51.478;-2.610;2023-03-18T14:13:41;0;0;
55276;PMS5003;41136;51.478;-2.610;2023-03-18T14:16:07;3;1;
55276;PMS5003;41136;51.478;-2.610;2023-03-18T14:18:31;1;1;
55276;PMS5003;41136;51.478;-2.610;2023-03-18T14:20:58;0;0;
55276;PMS5003;41136;51.478;-2.610;2023-03-18T14:23:26;0;0;
55276;PMS5003;41136;51.478;-2.610;2023-03-18T14:25:47;0;0;
55276;PMS5003;41136;51.478;-2.610;2023-03-18T14:28:17;0;0;
55276;PMS5003;41136;51.478;-2.610;2023-03-18T14:30:42;1;1;
55276;PMS5003;41136;51.478;-2.610;2023-03-18T14:33:04;1;1;
55276;PMS5003;41136;51.478;-2.610;2023-03-18T14:35:29;0;0;
55276;PMS5003;41136;51.478;-2.610;2023-03-18T14:37:55;1;1;
55276;PMS5003;41136;51.478;-2.610;2023-03-18T14:40:19;0;0;
55276;PMS5003;41136;51.478;-2.610;2023-03-18T14:42:47;1;1;
55276;PMS5003;41136;51.478;-2.610;2023-03-18T14:45:13;2;2;
55276;PMS5003;41136;51.478;-2.610;2023-03-18T14:47:38;0;0;
55276;PMS5003;41136;51.478;-2.610;2023-03-18T14:50:01;3;2;
55276;PMS5003;41136;51.478;-2.610;2023-03-18T14:52:27;0;0;
55276;PMS5003;41136;51.478;-2.610;2023-03-18T14:54:51;0;0;
55276;PMS5003;41136;51.478;-2.610;2023-03-18T14:57:16;0;0;
55276;PMS5003;41136;51.478;-2.610;2023-03-18T14:59:42;0;0;
55276;PMS5003;41136;51.478;-2.610;2023-03-18T15:02:10;5;5;
55276;PMS5003;41136;51.478;-2.610;2023-03-18T15:04:32;2;2;
55276;PMS5003;41136;51.478;-2.610;2023-03-18T15:06:59;3;2;
55276;PMS5003;41136;51.478;-2.610;2023-03-18T15:09:28;0;0;
55276;PMS5003;41136;51.478;-2.610;2023-03-18T15:11:49;2;1;
55276;PMS5003;41136;51.478;-2.610;2023-03-18T15:14:17;2;2;
55276;PMS5003;41136;51.478;-2.610;2023-03-18T15:16:39;2;1;
55276;PMS5003;41136;51.478;-2.610;2023-03-18T15:19:04;1;0;
55276;PMS5003;41136;51.478;-2.610;2023-03-18T15:21:31;1;1;
55276;PMS5003;41136;51.478;-2.610;2023-03-18T15:23:55;1;1;
55276;PMS5003;41136;51.478;-2.610;2023-03-18T15:26:21;2;0;
55276;PMS5003;41136;51.478;-2.610;2023-03-18T15:28:46;1;1;
55276;PMS5003;41136;51.478;-2.610;2023-03-18T15:31:11;2;2;
55276;PMS5003;41136;51.478;-2.610;2023-03-18T15:33:36;1;1;
55276;PMS5003;41136;51.478;-2.610;2023-03-18T15:36:02;2;2;
55276;PMS5003;41136;51.478;-2.610;2023-03-18T15:38:27;0;0;
55276;PMS5003;41136;51.478;-2.610;2023-03-18T15:40:53;3;1;
55276;PMS5003;41136;51.478;-2.610;2023-03-18T15:43:19;1;1;
55276;PMS5003;41136;51.478;-2.610;2023-03-18T15:45:43;0;0;
55276;PMS5003;41136;51.478;-2.610;2023-03-18T15:48:13;2;0;
55276;PMS5003;41136;51.478;-2.610;2023-03-18T15:50:33;0;0;
55276;PMS5003;41136;51.478;-2.610;2023-03-18T15:53:01;0;0;
55276;PMS5003;41136;51.478;-2.610;2023-03-18T15:55:24;0;0;
55276;PMS5003;41136;51.478;-2.610;2023-03-18T15:57:51;0;0;
55276;PMS5003;41136;51.478;-2.610;2023-03-18T16:00:15;1;1;
55276;PMS5003;41136;51.478;-2.610;2023-03-18T16:02:40;0;0;
55276;PMS5003;41136;51.478;-2.610;2023-03-18T16:05:06;0;0;
55276;PMS5003;41136;51.478;-2.610;2023-03-18T16:07:30;0;0;
55276;PMS5003;41136;51.478;-2.610;2023-03-18T16:09:56;0;0;
55276;PMS5003;41136;51.478;-2.610;2023-03-18T16:12:21;1;0;
55276;PMS5003;41136;51.478;-2.610;2023-03-18T16:14:47;0;0;
55276;PMS5003;41136;51.478;-2.610;2023-03-18T16:17:12;0;0;
55276;PMS5003;41136;51.478;-2.610;2023-03-18T16:19:37;4;3;
55276;PMS5003;41136;51.478;-2.610;2023-03-18T16:22:02;3;3;
55276;PMS5003;41136;51.478;-2.610;2023-03-18T16:24:28;0;0;
55276;PMS5003;41136;51.478;-2.610;2023-03-18T16:26:53;1;1;
55276;PMS5003;41136;51.478;-2.610;2023-03-18T16:29:20;0;0;
55276;PMS5003;41136;51.478;-2.610;2023-03-18T16:31:44;0;0;
55276;PMS5003;41136;51.478;-2.610;2023-03-18T16:34:12;0;0;
55276;PMS5003;41136;51.478;-2.610;2023-03-18T16:36:34;1;1;
55276;PMS5003;41136;51.478;-2.610;2023-03-18T16:39:00;3;1;
55276;PMS5003;41136;51.478;-2.610;2023-03-18T16:41:25;0;0;